Time;durP1;ratioP1;P1;durP2;ratioP2;P2;SDS_P1;SDS_P2;PMS_P1;PMS_P2;Temp;Humidity;BMP_temperature;BMP_pressure;BME280_temperature;BME280_humidity;BME280_pressure;Samples;Min_cycle;Max_cycle;Signal;HPM_P1;HPM_P2
2023/09/25 00:01:48;;;;;;;7.50;3.30;;;;;;;10.75;100.00;102515.94;7394352;19;21270;-41
2023/09/25 00:04:24;;;;;;;7.20;3.30;;;;;;;10.67;100.00;102518.88;7368003;19;20885;-41
2023/09/25 00:06:53;;;;;;;4.80;3.07;;;;;;;10.69;100.00;102505.19;7394851;19;20427;-42
2023/09/25 00:09:24;;;;;;;6.87;3.80;;;;;;;10.73;100.00;102502.94;7371011;19;20536;-41
2023/09/25 00:11:53;;;;;;;11.43;3.67;;;;;;;10.67;100.00;102500.81;7394664;19;20411;-40
2023/09/25 00:14:23;;;;;;;5.97;3.67;;;;;;;10.72;100.00;102497.66;7366475;19;20462;-41
2023/09/25 00:16:52;;;;;;;8.57;3.37;;;;;;;10.68;100.00;102488.81;7393954;19;20410;-41
2023/09/25 00:19:24;;;;;;;5.00;3.37;;;;;;;10.61;100.00;102495.22;7369501;19;20421;-41
2023/09/25 00:21:54;;;;;;;10.83;5.03;;;;;;;10.64;100.00;102490.28;7393963;19;20435;-41
2023/09/25 00:24:24;;;;;;;5.70;3.43;;;;;;;10.73;100.00;102486.53;7367771;19;20832;-41
2023/09/25 00:26:53;;;;;;;6.30;3.43;;;;;;;10.65;100.00;102489.50;7393475;19;20411;-42
2023/09/25 00:29:24;;;;;;;5.07;3.20;;;;;;;10.71;100.00;102485.53;7370033;19;20423;-41
2023/09/25 00:31:53;;;;;;;5.30;3.43;;;;;;;10.54;100.00;102480.09;7393342;19;20931;-41
2023/09/25 00:34:26;;;;;;;5.77;3.23;;;;;;;10.50;100.00;102483.25;7367848;19;20504;-41
2023/09/25 00:36:55;;;;;;;5.90;2.63;;;;;;;10.46;100.00;102486.44;7394098;19;20411;-43
2023/09/25 00:39:25;;;;;;;5.10;3.23;;;;;;;10.53;100.00;102483.47;7369579;19;20419;-42
2023/09/25 00:41:55;;;;;;;6.37;3.43;;;;;;;10.60;100.00;102479.63;7395324;19;20769;-42
2023/09/25 00:44:24;;;;;;;5.73;3.27;;;;;;;10.64;100.00;102461.91;7366137;19;20522;-41
2023/09/25 00:46:54;;;;;;;8.43;3.93;;;;;;;10.61;100.00;102464.25;7393310;19;20416;-41
2023/09/25 00:49:27;;;;;;;6.27;3.50;;;;;;;10.69;100.00;102466.47;7369294;19;20427;-42
2023/09/25 00:51:57;;;;;;;8.40;3.60;;;;;;;10.64;100.00;102472.22;7393036;19;20518;-42
2023/09/25 00:54:27;;;;;;;6.90;4.00;;;;;;;10.80;100.00;102468.09;7368028;19;20443;-41
2023/09/25 00:57:10;;;;;;;5.53;3.40;;;;;;;10.80;100.00;102468.09;7392055;19;20399;-41
2023/09/25 00:59:41;;;;;;;9.07;3.17;;;;;;;10.79;100.00;102476.63;7369728;19;20437;-41
2023/09/25 01:02:11;;;;;;;3.93;2.70;;;;;;;10.67;100.00;102482.75;7391607;19;20475;-42
2023/09/25 01:04:44;;;;;;;5.43;2.80;;;;;;;10.48;100.00;102498.66;7360024;19;20480;-43
2023/09/25 01:07:13;;;;;;;6.60;4.00;;;;;;;10.44;100.00;102500.88;7389347;19;20391;-43
2023/09/25 01:09:43;;;;;;;4.70;3.03;;;;;;;10.38;100.00;102502.25;7369472;19;20417;-43
2023/09/25 01:12:13;;;;;;;5.83;3.30;;;;;;;10.24;100.00;102505.50;7393818;19;20435;-43
2023/09/25 01:14:42;;;;;;;7.77;3.80;;;;;;;10.45;100.00;102490.69;7366574;19;20469;-45
2023/09/25 01:17:12;;;;;;;6.23;3.33;;;;;;;10.43;100.00;102486.19;7391234;19;20403;-41
2023/09/25 01:19:47;;;;;;;5.13;3.20;;;;;;;10.41;100.00;102483.47;7368598;19;20423;-41
2023/09/25 01:22:19;;;;;;;6.30;3.90;;;;;;;10.48;100.00;102480.59;7391559;19;20947;-42
2023/09/25 01:24:49;;;;;;;4.60;3.07;;;;;;;10.29;100.00;102498.13;7366315;19;20459;-40
2023/09/25 01:27:18;;;;;;;5.87;3.50;;;;;;;10.16;100.00;102491.16;7395634;19;20428;-41
2023/09/25 01:29:48;;;;;;;4.80;3.30;;;;;;;10.27;100.00;102490.25;7375997;19;20829;-41
2023/09/25 01:32:18;;;;;;;5.63;3.53;;;;;;;10.29;100.00;102486.09;7398396;19;20446;-41
2023/09/25 01:34:48;;;;;;;6.77;3.83;;;;;;;10.32;100.00;102482.84;7372965;19;21170;-41
2023/09/25 01:37:20;;;;;;;7.20;4.00;;;;;;;10.36;100.00;102487.44;7398303;19;20886;-41
2023/09/25 01:39:49;;;;;;;4.77;3.40;;;;;;;10.32;100.00;102481.16;7375749;19;20806;-41
2023/09/25 01:42:19;;;;;;;6.10;3.47;;;;;;;10.29;100.00;102488.66;7398095;19;20475;-41
2023/09/25 01:44:49;;;;;;;7.80;3.63;;;;;;;10.11;100.00;102494.31;7371087;19;20447;-41
2023/09/25 01:47:18;;;;;;;6.37;3.43;;;;;;;10.30;100.00;102489.59;7397807;19;20403;-41
2023/09/25 01:49:48;;;;;;;7.50;3.60;;;;;;;10.18;100.00;102490.50;7375406;19;20423;-41
2023/09/25 01:52:20;;;;;;;6.40;4.00;;;;;;;10.27;100.00;102487.69;7397780;19;20414;-41
2023/09/25 01:54:50;;;;;;;6.80;3.57;;;;;;;10.37;100.00;102484.94;7372673;19;20843;-41
2023/09/25 01:57:19;;;;;;;7.40;4.20;;;;;;;10.36;100.00;102484.84;7396947;19;20395;-40
2023/09/25 01:59:49;;;;;;;9.07;4.47;;;;;;;10.31;100.00;102481.06;7375009;19;20419;-41
2023/09/25 02:02:19;;;;;;;7.33;3.47;;;;;;;10.32;100.00;102488.00;7397373;19;20411;-40
2023/09/25 02:04:48;;;;;;;7.50;3.70;;;;;;;10.30;100.00;102495.63;7372592;19;20846;-40
2023/09/25 02:07:21;;;;;;;4.70;3.27;;;;;;;10.36;100.00;102495.19;7400142;19;20417;-41
2023/09/25 02:09:51;;;;;;;5.73;3.60;;;;;;;10.36;100.00;102500.34;7374609;19;20861;-41
2023/09/25 02:12:21;;;;;;;6.10;3.70;;;;;;;10.38;100.00;102506.50;7396374;19;20483;-41
2023/09/25 02:14:50;;;;;;;6.80;3.97;;;;;;;10.44;100.00;102504.38;7371525;19;20463;-40
2023/09/25 02:17:20;;;;;;;7.60;3.90;;;;;;;10.40;100.00;102510.97;7396654;19;20411;-43
2023/09/25 02:19:50;;;;;;;7.07;4.50;;;;;;;10.27;100.00;102514.34;7374763;19;20419;-41
2023/09/25 02:22:22;;;;;;;8.20;3.67;;;;;;;10.21;100.00;102518.19;7397732;19;20399;-41
2023/09/25 02:24:52;;;;;;;5.87;3.67;;;;;;;10.06;100.00;102526.59;7371992;19;20859;-43
2023/09/25 02:27:22;;;;;;;8.83;3.60;;;;;;;10.16;100.00;102511.81;7397156;19;20407;-40
2023/09/25 02:29:51;;;;;;;5.50;3.30;;;;;;;10.16;100.00;102507.56;7372822;19;20919;-40
2023/09/25 02:32:21;;;;;;;5.70;3.60;;;;;;;10.29;100.00;102504.16;7396509;19;20426;-40
2023/09/25 02:34:50;;;;;;;7.83;3.70;;;;;;;10.45;100.00;102502.69;7372151;19;20471;-41
2023/09/25 02:37:23;;;;;;;5.77;3.50;;;;;;;10.27;100.00;102500.56;7395442;19;20399;-39
2023/09/25 02:39:52;;;;;;;6.37;4.07;;;;;;;10.25;100.00;102502.13;7374101;19;20492;-40
2023/09/25 02:42:22;;;;;;;4.67;3.67;;;;;;;10.23;100.00;102493.41;7396400;19;20400;-39
2023/09/25 02:44:51;;;;;;;9.50;4.00;;;;;;;10.27;100.00;102495.41;7370252;19;20474;-39
2023/09/25 02:47:21;;;;;;;6.27;3.97;;;;;;;10.16;100.00;102494.66;7398085;19;20409;-40
2023/09/25 02:49:51;;;;;;;5.83;3.63;;;;;;;9.97;100.00;102502.75;7373095;19;20423;-39
2023/09/25 02:52:23;;;;;;;8.57;3.97;;;;;;;10.10;100.00;102492.53;7396479;19;20766;-41
2023/09/25 02:54:52;;;;;;;5.50;3.77;;;;;;;10.05;100.00;102498.16;7371492;19;20486;-41
2023/09/25 02:57:22;;;;;;;8.90;4.07;;;;;;;10.07;100.00;102501.72;7395801;19;20412;-42
2023/09/25 02:59:52;;;;;;;6.33;3.50;;;;;;;10.22;100.00;102499.34;7373063;19;20439;-40
2023/09/25 03:02:21;;;;;;;6.50;4.20;;;;;;;10.27;100.00;102503.16;7395375;19;20410;-41
2023/09/25 03:04:51;;;;;;;6.80;4.30;;;;;;;10.11;100.00;102504.63;7370621;19;20471;-41
2023/09/25 03:07:24;;;;;;;6.60;3.90;;;;;;;9.99;100.00;102508.91;7395839;19;20395;-40
2023/09/25 03:09:53;;;;;;;7.23;4.47;;;;;;;9.96;100.00;102508.69;7372729;19;20427;-40
2023/09/25 03:12:23;;;;;;;6.57;3.83;;;;;;;9.99;100.00;102508.91;7395246;19;20471;-40
2023/09/25 03:14:53;;;;;;;8.73;4.03;;;;;;;10.06;100.00;102505.09;7370210;19;20454;-40
2023/09/25 03:17:22;;;;;;;9.07;4.30;;;;;;;9.99;100.00;102493.44;7395351;19;21015;-41
2023/09/25 03:19:53;;;;;;;8.00;4.00;;;;;;;10.00;100.00;102495.22;7372048;19;20848;-40
2023/09/25 03:22:25;;;;;;;7.80;4.13;;;;;;;9.92;100.00;102486.94;7394983;19;20425;-40
2023/09/25 03:24:55;;;;;;;9.40;3.93;;;;;;;9.88;100.00;102484.06;7370517;19;20799;-41
2023/09/25 03:27:24;;;;;;;6.40;4.33;;;;;;;10.01;100.00;102491.88;7394959;19;20487;-39
2023/09/25 03:29:54;;;;;;;6.67;3.90;;;;;;;9.86;100.00;102489.09;7372227;19;20455;-40
2023/09/25 03:32:24;;;;;;;6.13;4.47;;;;;;;9.68;100.00;102498.94;7398088;19;20418;-40
2023/09/25 03:34:54;;;;;;;15.83;4.10;;;;;;;9.63;100.00;102506.34;7370203;19;20867;-39
2023/09/25 03:37:26;;;;;;;7.80;4.40;;;;;;;9.75;100.00;102496.06;7395188;19;20475;-40
2023/09/25 03:39:55;;;;;;;7.30;4.27;;;;;;;9.82;100.00;102493.13;7371979;19;20466;-41
2023/09/25 03:42:25;;;;;;;8.23;4.57;;;;;;;9.78;100.00;102490.19;7395264;19;20491;-42
2023/09/25 03:44:55;;;;;;;7.17;4.20;;;;;;;9.90;100.00;102487.63;7368436;19;20455;-40
2023/09/25 03:47:24;;;;;;;6.00;3.93;;;;;;;9.85;100.00;102484.72;7394944;19;20410;-41
2023/09/25 03:49:54;;;;;;;6.70;4.40;;;;;;;9.78;100.00;102488.53;7369673;19;20419;-39
2023/09/25 03:52:27;;;;;;;6.73;4.90;;;;;;;9.76;100.00;102489.19;7394762;19;20399;-40
2023/09/25 03:54:57;;;;;;;6.40;3.23;;;;;;;9.71;100.00;102486.28;7370330;19;20459;-42
2023/09/25 03:57:26;;;;;;;5.10;3.60;;;;;;;9.76;100.00;102481.47;7394390;19;20425;-40
2023/09/25 03:59:56;;;;;;;5.90;4.27;;;;;;;9.75;100.00;102484.81;7371525;19;20427;-41
2023/09/25 04:02:25;;;;;;;5.83;4.23;;;;;;;9.66;100.00;102492.78;7394267;19;20429;-39
2023/09/25 04:04:55;;;;;;;8.47;4.10;;;;;;;9.54;100.00;102501.41;7369423;19;21006;-42
2023/09/25 04:07:27;;;;;;;10.57;4.10;;;;;;;9.50;100.00;102494.25;7394327;19;20407;-39
2023/09/25 04:09:57;;;;;;;5.90;4.27;;;;;;;9.47;100.00;102491.44;7371967;19;21073;-40
2023/09/25 04:12:26;;;;;;;11.30;4.30;;;;;;;9.49;100.00;102491.53;7393865;19;20419;-40
2023/09/25 04:14:56;;;;;;;9.23;4.13;;;;;;;9.47;100.00;102486.28;7369677;19;20463;-42
2023/09/25 04:17:26;;;;;;;6.03;4.10;;;;;;;9.45;100.00;102485.28;7394171;19;20474;-39
2023/09/25 04:19:55;;;;;;;8.90;5.23;;;;;;;9.38;100.00;102478.75;7371726;19;20498;-39
2023/09/25 04:22:28;;;;;;;8.30;4.10;;;;;;;9.47;100.00;102468.25;7394005;19;20416;-41
2023/09/25 04:24:57;;;;;;;7.13;4.63;;;;;;;9.59;100.00;102469.13;7369436;19;21058;-41
2023/09/25 04:27:27;;;;;;;7.37;4.53;;;;;;;9.76;100.00;102464.31;7394042;19;20814;-40
2023/09/25 04:29:57;;;;;;;5.93;4.10;;;;;;;9.82;100.00;102464.78;7371019;19;20431;-41
2023/09/25 04:32:27;;;;;;;8.80;4.50;;;;;;;9.88;100.00;102468.59;7393608;19;20947;-40
2023/09/25 04:34:56;;;;;;;7.93;4.83;;;;;;;9.82;100.00;102475.09;7368829;19;20459;-41
2023/09/25 04:37:30;;;;;;;8.67;5.17;;;;;;;9.83;100.00;102473.38;7392178;19;20394;-41
2023/09/25 04:40:00;;;;;;;8.53;4.80;;;;;;;9.93;100.00;102475.84;7365766;19;20483;-41
2023/09/25 04:42:29;;;;;;;6.40;4.67;;;;;;;9.81;100.00;102483.59;7393218;19;20415;-43
2023/09/25 04:44:59;;;;;;;6.43;4.20;;;;;;;9.79;100.00;102489.44;7368230;19;20463;-40
2023/09/25 04:47:29;;;;;;;8.23;4.87;;;;;;;9.52;100.00;102500.41;7393212;19;20414;-40
2023/09/25 04:49:59;;;;;;;6.53;4.40;;;;;;;9.49;100.00;102510.47;7370388;19;20423;-40
2023/09/25 04:52:31;;;;;;;8.67;5.27;;;;;;;9.56;100.00;102497.28;7393481;19;20605;-41
2023/09/25 04:55:01;;;;;;;7.60;4.37;;;;;;;9.76;100.00;102492.69;7368295;19;21223;-39
2023/09/25 04:57:30;;;;;;;8.00;4.83;;;;;;;9.78;100.00;102488.53;7392669;19;20482;-40
2023/09/25 05:00:05;;;;;;;7.33;4.67;;;;;;;9.64;100.00;102499.50;7369665;19;20491;-41
2023/09/25 05:02:34;;;;;;;8.37;5.27;;;;;;;9.49;100.00;102505.31;7399850;19;20837;-40
2023/09/25 05:05:04;;;;;;;8.33;4.63;;;;;;;9.40;100.00;102502.06;7374454;19;20466;-39
2023/09/25 05:07:36;;;;;;;9.23;4.30;;;;;;;9.69;100.00;102490.44;7398294;19;20424;-41
2023/09/25 05:10:07;;;;;;;24.10;12.50;;;;;;;9.79;100.00;102480.00;7377682;19;20505;-39
2023/09/25 05:12:37;;;;;;;29.33;15.30;;;;;;;9.86;100.00;102476.19;7402032;19;20835;-43
2023/09/25 05:15:08;;;;;;;35.20;16.00;;;;;;;9.89;100.00;102475.53;7374371;19;20459;-39
2023/09/25 05:17:38;;;;;;;15.70;8.10;;;;;;;9.92;100.00;102476.63;7399327;19;20407;-41
2023/09/25 05:20:11;;;;;;;14.33;6.33;;;;;;;9.86;100.00;102469.34;7376879;19;20423;-44
2023/09/25 05:22:45;;;;;;;9.00;6.20;;;;;;;9.92;100.00;102480.88;7398730;19;20424;-41
2023/09/25 05:25:16;;;;;;;19.93;5.50;;;;;;;9.86;100.00;102483.94;7374909;19;20480;-42
2023/09/25 05:27:47;;;;;;;11.20;4.90;;;;;;;9.98;100.00;102481.31;7401093;19;20490;-40
2023/09/25 05:30:18;;;;;;;12.40;5.17;;;;;;;9.97;100.00;102492.44;7377721;19;20979;-40
2023/09/25 05:32:51;;;;;;;9.07;5.20;;;;;;;10.06;100.00;102490.50;7398891;19;20483;-40
2023/09/25 05:35:22;;;;;;;9.20;5.40;;;;;;;10.10;100.00;102497.69;7374110;19;20443;-41
2023/09/25 05:37:54;;;;;;;6.97;4.13;;;;;;;10.04;100.00;102507.56;7398080;19;20408;-40
2023/09/25 05:40:23;;;;;;;9.03;5.30;;;;;;;9.97;100.00;102518.22;7376798;19;20970;-41
2023/09/25 05:42:53;;;;;;;6.33;4.40;;;;;;;9.90;100.00;102531.47;7380657;19;20495;-40
2023/09/25 05:45:23;;;;;;;6.47;4.60;;;;;;;9.74;100.00;102527.75;7398546;19;20507;-40
2023/09/25 05:47:52;;;;;;;9.37;4.80;;;;;;;9.68;100.00;102525.63;7389605;19;20419;-40
2023/09/25 05:50:22;;;;;;;7.13;5.20;;;;;;;9.86;100.00;102525.19;7396709;19;20428;-40
2023/09/25 05:52:54;;;;;;;12.33;5.30;;;;;;;9.78;100.00;102516.88;7396512;19;20430;-41
2023/09/25 05:55:24;;;;;;;9.07;4.70;;;;;;;9.68;100.00;102520.47;7397529;19;20447;-40
2023/09/25 05:57:55;;;;;;;6.07;4.47;;;;;;;9.66;100.00;102524.63;7375355;19;20962;-41
2023/09/25 06:00:25;;;;;;;7.50;4.33;;;;;;;9.79;100.00;102520.38;7397811;19;20491;-39
2023/09/25 06:02:54;;;;;;;7.07;4.53;;;;;;;9.81;100.00;102514.53;7371180;19;20412;-40
2023/09/25 06:05:24;;;;;;;67.30;33.73;;;;;;;10.72;100.00;102495.97;7390329;19;20446;-40
2023/09/25 06:07:56;;;;;;;26.43;14.27;;;;;;;10.75;100.00;102503.94;7374235;19;20426;-40
2023/09/25 06:10:26;;;;;;;19.10;10.47;;;;;;;11.10;100.00;102504.53;7395533;19;20408;-41
2023/09/25 06:12:55;;;;;;;29.47;15.87;;;;;;;11.33;100.00;102520.69;7372108;19;20417;-42
2023/09/25 06:15:26;;;;;;;5.93;4.20;;;;;;;11.06;100.00;102559.34;7395026;19;20808;-42
2023/09/25 06:17:58;;;;;;;11.73;5.83;;;;;;;10.80;100.00;102586.88;7374571;19;20439;-40
2023/09/25 06:20:29;;;;;;;6.23;4.47;;;;;;;10.85;100.00;102601.00;7395311;19;20412;-41
2023/09/25 06:23:04;;;;;;;9.43;6.03;;;;;;;11.30;100.00;102608.34;7374322;19;20407;-41
2023/09/25 06:25:34;;;;;;;9.03;4.83;;;;;;;11.29;100.00;102624.66;7393870;19;20412;-40
2023/09/25 06:28:05;;;;;;;8.00;5.43;;;;;;;11.29;100.00;102650.47;7372101;19;20388;-41
2023/09/25 06:30:34;;;;;;;6.33;4.30;;;;;;;10.73;100.00;102675.00;7396444;19;20990;-40
2023/09/25 06:33:06;;;;;;;8.50;4.33;;;;;;;10.48;100.00;102681.88;7373820;19;20416;-40
2023/09/25 06:35:36;;;;;;;7.53;4.23;;;;;;;10.48;100.00;102675.81;7394318;19;20773;-42
2023/09/25 06:38:08;;;;;;;6.60;4.33;;;;;;;10.42;100.00;102660.75;7395261;19;20438;-41
2023/09/25 06:40:38;;;;;;;6.53;3.90;;;;;;;10.46;100.00;102646.44;7396822;19;20417;-40
2023/09/25 06:43:08;;;;;;;6.63;4.23;;;;;;;10.57;100.00;102640.34;7394121;19;20474;-43
2023/09/25 06:45:37;;;;;;;5.60;4.20;;;;;;;10.52;100.00;102637.41;7394705;19;20763;-41
2023/09/25 06:48:08;;;;;;;5.63;3.67;;;;;;;10.50;100.00;102631.25;7395020;19;20495;-41
2023/09/25 06:50:37;;;;;;;7.10;3.60;;;;;;;10.58;100.00;102631.81;7395714;19;20407;-40
2023/09/25 06:53:09;;;;;;;7.30;4.60;;;;;;;10.71;100.00;102632.69;7370467;19;20806;-41
2023/09/25 06:55:39;;;;;;;8.37;3.70;;;;;;;10.73;100.00;102636.28;7394976;19;20410;-40
2023/09/25 06:58:09;;;;;;;6.00;3.80;;;;;;;10.77;100.00;102643.47;7371484;19;20426;-40
2023/09/25 07:00:39;;;;;;;7.40;3.97;;;;;;;10.85;100.00;102654.31;7392538;19;20486;-42
2023/09/25 07:03:26;;;;;;;6.40;4.00;;;;;;;10.96;100.00;102660.25;7371721;19;20475;-40
2023/09/25 07:05:56;;;;;;;10.70;4.87;;;;;;;10.98;100.00;102675.03;7396833;19;20413;-40
2023/09/25 07:08:30;;;;;;;6.73;4.13;;;;;;;11.03;100.00;102678.88;7371981;19;20427;-40
2023/09/25 07:11:00;;;;;;;6.03;4.07;;;;;;;11.11;100.00;102701.75;7395360;19;20417;-43
2023/09/25 07:13:30;;;;;;;5.83;3.00;;;;;;;11.13;100.00;102701.06;7370215;19;20485;-42
2023/09/25 07:16:08;;;;;;;4.97;3.30;;;;;;;11.21;100.00;102712.88;7392891;19;20818;-40
2023/09/25 07:18:39;;;;;;;7.00;3.90;;;;;;;11.33;100.00;102712.81;7371850;19;20498;-41
2023/09/25 07:21:09;;;;;;;5.83;3.90;;;;;;;11.49;100.00;102703.56;7393696;19;20411;-41
2023/09/25 07:23:41;;;;;;;9.40;3.90;;;;;;;11.59;100.00;102707.69;7367221;19;20545;-40
2023/09/25 07:26:11;;;;;;;30.20;14.33;;;;;;;11.64;100.00;102706.28;7393730;19;20417;-40
2023/09/25 07:28:41;;;;;;;6.60;3.50;;;;;;;11.72;100.00;102705.13;7371329;19;20419;-42
2023/09/25 07:31:11;;;;;;;6.67;3.43;;;;;;;11.80;100.00;102694.41;7393131;19;20416;-40
2023/09/25 07:33:41;;;;;;;6.80;3.33;;;;;;;11.93;100.00;102678.91;7370353;19;20470;-39
2023/09/25 07:36:11;;;;;;;7.97;3.97;;;;;;;11.98;100.00;102667.19;7393422;19;20403;-41
2023/09/25 07:38:44;;;;;;;5.37;3.50;;;;;;;12.10;100.00;102654.19;7371043;19;20498;-40
2023/09/25 07:41:14;;;;;;;5.57;3.30;;;;;;;12.21;100.00;102643.66;7395445;19;20756;-40
2023/09/25 07:43:48;;;;;;;5.83;3.30;;;;;;;12.28;100.00;102630.31;7369843;19;20566;-39
2023/09/25 07:46:26;;;;;;;5.20;3.47;;;;;;;12.41;100.00;102626.84;7394040;19;20784;-40
2023/09/25 07:48:58;;;;;;;7.83;4.27;;;;;;;12.47;100.00;102621.16;7366104;19;20798;-41
2023/09/25 07:51:29;;;;;;;5.87;3.10;;;;;;;12.54;100.00;102594.84;7394318;19;20412;-42
2023/09/25 07:54:03;;;;;;;6.37;2.90;;;;;;;12.71;100.00;102595.91;7369400;19;20467;-40
2023/09/25 07:56:33;;;;;;;7.40;2.90;;;;;;;12.72;100.00;102576.97;7395875;19;20400;-41
2023/09/25 07:59:02;;;;;;;5.93;3.00;;;;;;;12.83;100.00;102560.38;7371096;19;20748;-40
2023/09/25 08:01:32;;;;;;;4.43;2.67;;;;;;;12.90;100.00;102553.91;7393129;19;20419;-41
2023/09/25 08:04:02;;;;;;;4.80;2.80;;;;;;;13.05;100.00;102517.66;7369766;19;20451;-40
2023/09/25 08:06:31;;;;;;;6.40;2.53;;;;;;;13.15;100.00;102500.06;7393031;19;20975;-42
2023/09/25 08:09:04;;;;;;;5.10;2.57;;;;;;;13.25;100.00;102481.66;7371843;19;20435;-42
2023/09/25 08:11:34;;;;;;;6.70;3.17;;;;;;;13.40;100.00;102463.50;7393297;19;20411;-43
2023/09/25 08:14:04;;;;;;;4.40;2.60;;;;;;;13.50;100.00;102436.44;7369684;19;20817;-40
2023/09/25 08:16:34;;;;;;;6.47;3.13;;;;;;;13.56;100.00;102413.44;7395136;19;20496;-41
2023/09/25 08:19:03;;;;;;;5.27;2.73;;;;;;;13.56;100.00;102400.47;7369323;19;20426;-41
2023/09/25 08:21:33;;;;;;;6.30;2.90;;;;;;;13.68;100.00;102383.81;7392938;19;20411;-41
2023/09/25 08:24:05;;;;;;;6.17;3.73;;;;;;;13.79;100.00;102361.94;7369727;19;20458;-39
2023/09/25 08:26:35;;;;;;;5.87;3.10;;;;;;;14.10;100.00;102352.31;7392676;19;20411;-41
2023/09/25 08:29:05;;;;;;;4.03;2.40;;;;;;;14.03;100.00;102319.94;7370478;19;20419;-41
2023/09/25 08:31:37;;;;;;;5.23;2.60;;;;;;;14.00;100.00;102297.31;7392717;19;20471;-40
2023/09/25 08:34:07;;;;;;;6.70;2.60;;;;;;;14.13;100.00;102306.66;7367733;19;20463;-40
2023/09/25 08:36:36;;;;;;;5.30;2.30;;;;;;;14.20;100.00;102289.66;7404459;19;20486;-40
2023/09/25 08:39:11;;;;;;;5.53;2.60;;;;;;;14.30;100.00;102284.16;7383093;19;20427;-40
2023/09/25 08:41:43;;;;;;;4.57;2.17;;;;;;;14.26;100.00;102274.41;7407083;19;20416;-40
2023/09/25 08:44:12;;;;;;;4.00;2.20;;;;;;;14.22;100.00;102237.84;7382704;19;20486;-42
2023/09/25 08:46:42;;;;;;;6.90;2.83;;;;;;;14.40;100.00;102261.22;7406022;19;20403;-39
2023/09/25 08:49:12;;;;;;;4.40;2.37;;;;;;;14.55;100.00;102263.69;7381279;19;20439;-40
2023/09/25 08:51:41;;;;;;;4.50;2.20;;;;;;;14.58;100.00;102240.50;7406840;19;20768;-41
2023/09/25 08:54:14;;;;;;;4.27;2.50;;;;;;;14.67;100.00;102233.13;7379283;19;20450;-42
2023/09/25 08:56:45;;;;;;;5.17;2.73;;;;;;;14.73;100.00;102222.16;7406251;19;20411;-40
2023/09/25 08:59:14;;;;;;;5.00;2.27;;;;;;;14.96;100.00;102236.28;7379891;19;20423;-42
2023/09/25 09:01:45;;;;;;;17.23;8.50;;;;;;;15.02;100.00;102219.19;7405063;19;20938;-41
2023/09/25 09:04:14;;;;;;;4.73;2.00;;;;;;;15.09;100.00;102203.06;7375548;19;20443;-42
2023/09/25 09:06:44;;;;;;;5.27;2.57;;;;;;;15.22;100.00;102176.81;7405718;19;20938;-41
2023/09/25 09:09:18;;;;;;;11.17;5.07;;;;;;;15.42;100.00;102174.22;7383907;19;20959;-42
2023/09/25 09:11:56;;;;;;;6.50;2.20;;;;;;;15.44;100.00;102143.94;7406552;19;20403;-43
2023/09/25 09:14:35;;;;;;;4.30;2.10;;;;;;;15.63;100.00;102162.94;7381900;19;20461;-41
2023/09/25 09:17:07;;;;;;;3.67;2.10;;;;;;;15.51;100.00;102117.41;7406873;19;20407;-41
2023/09/25 09:19:38;;;;;;;3.30;1.90;;;;;;;15.62;100.00;102116.97;7382718;19;20987;-44
2023/09/25 09:22:09;;;;;;;4.10;2.03;;;;;;;15.73;100.00;102109.59;7406465;19;20430;-41
2023/09/25 09:24:43;;;;;;;4.70;2.00;;;;;;;15.87;100.00;102112.78;7379211;19;20446;-40
2023/09/25 09:27:14;;;;;;;7.23;3.50;;;;;;;16.16;100.00;102107.94;7380460;19;20414;-43
2023/09/25 09:29:45;;;;;;;3.67;1.97;;;;;;;16.05;100.00;102048.50;7399817;19;21014;-41
2023/09/25 09:32:14;;;;;;;5.03;2.37;;;;;;;16.10;100.00;102024.38;7376632;19;20419;-42
2023/09/25 09:34:44;;;;;;;5.83;2.30;;;;;;;16.30;100.00;102018.22;7398032;19;20454;-42
2023/09/25 09:37:14;;;;;;;7.90;2.37;;;;;;;16.18;100.00;101977.00;7378559;19;20420;-40
2023/09/25 09:39:52;;;;;;;8.93;4.40;;;;;;;16.27;100.00;101966.03;7400370;19;20403;-40
2023/09/25 09:42:26;;;;;;;3.73;2.00;;;;;;;16.37;100.00;101961.16;7378872;19;20420;-42
2023/09/25 09:44:57;;;;;;;4.47;2.13;;;;;;;16.50;100.00;101939.94;7400510;19;21017;-44
2023/09/25 09:47:28;;;;;;;4.53;2.00;;;;;;;16.56;100.00;101941.88;7368732;19;20483;-42
2023/09/25 09:49:58;;;;;;;4.97;2.90;;;;;;;16.50;100.00;101926.91;7393167;19;20415;-41
2023/09/25 09:52:27;;;;;;;5.30;2.50;;;;;;;16.43;100.00;101914.50;7372012;19;20407;-41
2023/09/25 09:55:00;;;;;;;12.90;5.40;;;;;;;16.69;100.00;101927.56;7392224;19;20435;-43
2023/09/25 09:57:30;;;;;;;4.20;2.13;;;;;;;16.81;100.00;101925.38;7371399;19;20380;-42
2023/09/25 10:00:00;;;;;;;4.43;1.90;;;;;;;16.64;100.00;101908.28;7392553;19;21208;-42
2023/09/25 10:02:31;;;;;;;4.00;2.00;;;;;;;16.75;100.00;101912.13;7370576;19;20403;-40
2023/09/25 10:05:02;;;;;;;9.13;4.33;;;;;;;17.03;100.00;101928.78;7392295;19;20966;-41
2023/09/25 10:07:33;;;;;;;4.10;1.40;;;;;;;17.07;100.00;101922.81;7371338;19;20403;-40
2023/09/25 10:10:09;;;;;;;20.50;11.03;;;;;;;17.19;100.00;101921.44;7393118;19;21026;-41
2023/09/25 10:12:40;;;;;;;5.23;1.93;;;;;;;17.14;100.00;101908.28;7370401;19;21076;-41
2023/09/25 10:15:12;;;;;;;3.87;2.00;;;;;;;17.21;100.00;101905.03;7391316;19;20979;-41
2023/09/25 10:17:42;;;;;;;12.10;6.07;;;;;;;17.27;100.00;101901.72;7369812;19;20399;-42
2023/09/25 10:20:30;;;;;;;4.10;1.60;;;;;;;17.34;100.00;101902.81;7391714;19;20436;-41
2023/09/25 10:23:01;;;;;;;4.83;1.83;;;;;;;17.59;100.00;101922.72;7371421;19;20403;-42
2023/09/25 10:25:33;;;;;;;5.10;2.10;;;;;;;17.84;100.00;101920.84;7393761;19;21058;-41
2023/09/25 10:28:03;;;;;;;6.03;2.23;;;;;;;17.91;100.00;101921.94;7372762;19;20419;-42
2023/09/25 10:30:37;;;;;;;5.40;2.17;;;;;;;17.90;100.00;101928.00;7393986;19;20423;-41
2023/09/25 10:33:07;;;;;;;4.80;1.87;;;;;;;17.93;100.00;101939.41;7373121;19;20422;-40
2023/09/25 10:35:47;;;;;;;8.70;1.70;;;;;;;17.88;100.00;101946.22;7391497;19;20407;-41
2023/09/25 10:38:21;;;;;;;4.97;1.40;;;;;;;17.86;100.00;101945.31;7370661;19;20426;-41
2023/09/25 10:41:08;;;;;;;6.27;2.17;;;;;;;17.76;100.00;101964.13;7395552;19;20411;-42
2023/09/25 10:43:38;;;;;;;6.17;2.23;;;;;;;17.76;100.00;101979.78;7371123;19;20830;-40
2023/09/25 10:46:07;;;;;;;7.70;1.83;;;;;;;17.85;100.00;101982.69;7395443;19;20842;-42
2023/09/25 10:48:38;;;;;;;3.73;1.17;;;;;;;17.94;100.00;101990.78;7369800;19;20420;-40
2023/09/25 10:51:08;;;;;;;3.30;1.40;;;;;;;18.00;100.00;102002.28;7395317;19;20403;-42
2023/09/25 10:53:38;;;;;;;6.30;2.87;;;;;;;17.84;100.00;102007.00;7370467;19;20570;-41
2023/09/25 10:56:11;;;;;;;5.33;2.27;;;;;;;17.97;100.00;101999.53;7393737;19;21011;-42
2023/09/25 10:58:41;;;;;;;5.10;1.90;;;;;;;18.08;100.00;101995.56;7371762;19;20452;-42
2023/09/25 11:01:11;;;;;;;5.10;1.63;;;;;;;18.22;100.00;101991.66;7394233;19;20775;-40
2023/09/25 11:03:41;;;;;;;4.07;1.47;;;;;;;18.32;100.00;101991.94;7370419;19;20463;-41
2023/09/25 11:06:11;;;;;;;3.70;1.40;;;;;;;18.32;100.00;101989.31;7393399;19;20831;-41
2023/09/25 11:08:41;;;;;;;10.03;2.80;;;;;;;18.37;100.00;101985.13;7370927;19;20486;-42
2023/09/25 11:11:14;;;;;;;5.33;2.07;;;;;;;18.42;100.00;101987.88;7393257;19;20402;-42
2023/09/25 11:13:44;;;;;;;4.30;1.60;;;;;;;18.57;100.00;101993.50;7360493;19;20462;-42
2023/09/25 11:16:14;;;;;;;4.03;1.70;;;;;;;18.48;100.00;101986.31;7394850;19;20407;-41
2023/09/25 11:18:43;;;;;;;4.50;2.00;;;;;;;18.49;100.00;101975.03;7371144;19;20431;-41
2023/09/25 11:21:13;;;;;;;5.33;1.87;;;;;;;18.57;100.00;101971.72;7394638;19;20404;-42
2023/09/25 11:23:45;;;;;;;4.70;1.40;;;;;;;18.84;100.00;101978.56;7370104;19;20479;-43
2023/09/25 11:26:17;;;;;;;6.03;2.43;;;;;;;18.66;100.00;101960.66;7395636;19;20402;-41
2023/09/25 11:28:47;;;;;;;4.50;1.57;;;;;;;18.61;100.00;101955.31;7370934;19;20423;-43
2023/09/25 11:31:17;;;;;;;4.30;1.90;;;;;;;18.62;100.00;101926.56;7395961;19;20408;-42
2023/09/25 11:33:46;;;;;;;22.40;9.30;;;;;;;18.77;100.00;101938.31;7370319;19;20543;-43